createdAt,value
2022-12-09T00:02:22.542Z,97383.66
2022-12-09T00:04:49.890Z,97387.41
2022-12-09T00:07:17.135Z,97381.41
2022-12-09T00:09:44.057Z,97379.41
2022-12-09T00:12:11.186Z,97378.19
2022-12-09T00:14:38.120Z,97387.66
2022-12-09T00:17:05.330Z,97392.53
2022-12-09T00:19:32.405Z,97385.34
2022-12-09T00:21:59.488Z,97385.72
2022-12-09T00:24:26.636Z,97377.34
2022-12-09T00:26:53.509Z,97367.44
2022-12-09T00:29:20.190Z,97373.25
2022-12-09T00:31:47.410Z,97375.31
2022-12-09T00:34:14.640Z,97386.03
2022-12-09T00:36:42.031Z,97391.28
2022-12-09T00:39:10.560Z,97388.41
2022-12-09T00:41:37.532Z,97402.53
2022-12-09T00:44:04.985Z,97406.12
2022-12-09T00:46:32.394Z,97406.97
2022-12-09T00:48:59.681Z,97416.75
2022-12-09T00:51:26.683Z,97404.00
2022-12-09T00:53:55.905Z,97409.28
2022-12-09T00:56:24.837Z,97417.44
2022-12-09T00:58:52.061Z,97409.06
2022-12-09T01:01:18.963Z,97411.22
2022-12-09T01:03:46.149Z,97398.25
2022-12-09T01:06:17.133Z,97387.59
2022-12-09T01:08:45.688Z,97395.59
2022-12-09T01:11:17.382Z,97393.91
2022-12-09T01:13:44.260Z,97384.88
2022-12-09T01:16:16.600Z,97379.78
2022-12-09T01:18:44.143Z,97385.53
2022-12-09T01:21:11.122Z,97379.19
2022-12-09T01:23:38.263Z,97381.88
2022-12-09T01:26:06.837Z,97384.84
2022-12-09T01:28:38.300Z,97382.31
2022-12-09T01:31:07.404Z,97374.59
2022-12-09T01:33:34.790Z,97375.03
2022-12-09T01:36:04.974Z,97373.44
2022-12-09T01:38:32.097Z,97373.47
2022-12-09T01:40:59.321Z,97382.84
2022-12-09T01:43:26.292Z,97369.41
2022-12-09T01:45:53.680Z,97378.72
2022-12-09T01:48:23.885Z,97373.53
2022-12-09T01:50:53.741Z,97371.34
2022-12-09T01:53:23.875Z,97366.22
2022-12-09T01:55:51.100Z,97365.97
2022-12-09T01:58:18.424Z,97362.75
2022-12-09T02:00:45.327Z,97373.72
2022-12-09T02:03:13.050Z,97373.53
2022-12-09T02:05:40.669Z,97364.06
2022-12-09T02:08:12.332Z,97373.75
2022-12-09T02:10:57.891Z,97365.47
2022-12-09T02:13:38.122Z,97365.31
2022-12-09T02:16:10.323Z,97371.44
2022-12-09T02:18:48.405Z,97363.91
2022-12-09T02:21:26.565Z,97366.03
2022-12-09T02:24:03.052Z,97356.81
2022-12-09T02:27:04.988Z,97360.03
2022-12-09T02:30:06.887Z,97362.25
2022-12-09T02:32:40.120Z,97350.72
2022-12-09T02:35:36.496Z,97346.13
2022-12-09T02:38:16.835Z,97339.34
2022-12-09T02:40:50.611Z,97345.09
2022-12-09T02:43:21.382Z,97336.56
2022-12-09T02:45:49.882Z,97332.59
2022-12-09T02:48:21.271Z,97330.47
2022-12-09T02:50:50.066Z,97336.88
2022-12-09T02:53:18.557Z,97333.66
2022-12-09T02:55:48.029Z,97331.03
2022-12-09T02:58:15.072Z,97343.84
2022-12-09T03:00:42.386Z,97339.81
2022-12-09T03:03:15.308Z,97324.50
2022-12-09T03:05:42.287Z,97325.34
2022-12-09T03:08:11.825Z,97322.56
2022-12-09T03:10:54.282Z,97326.28
2022-12-09T03:13:30.500Z,97329.09
2022-12-09T03:16:06.749Z,97330.72
2022-12-09T03:18:34.235Z,97329.78
2022-12-09T03:21:01.700Z,97341.06
2022-12-09T03:23:29.662Z,97334.16
2022-12-09T03:25:56.986Z,97332.25
2022-12-09T03:28:26.944Z,97324.50
2022-12-09T03:30:55.462Z,97329.19
2022-12-09T03:33:23.705Z,97318.97
2022-12-09T03:35:56.330Z,97321.53
2022-12-09T03:38:24.282Z,97313.88
2022-12-09T03:40:58.161Z,97309.28
2022-12-09T03:43:29.143Z,97307.38
2022-12-09T03:45:57.527Z,97313.31
2022-12-09T03:48:24.924Z,97315.81
2022-12-09T03:50:59.819Z,97315.47
2022-12-09T03:53:33.574Z,97307.44
2022-12-09T03:56:22.295Z,97320.22
2022-12-09T03:58:51.452Z,97320.47
2022-12-09T04:01:19.051Z,97322.00
2022-12-09T04:03:49.632Z,97322.09
2022-12-09T04:06:16.729Z,97319.66
2022-12-09T04:08:44.079Z,97321.31
2022-12-09T04:11:11.204Z,97317.00
2022-12-09T04:13:38.299Z,97322.66
2022-12-09T04:16:05.459Z,97325.28
2022-12-09T04:18:32.914Z,97319.16
2022-12-09T04:20:59.828Z,97316.72
2022-12-09T04:23:26.816Z,97319.69
2022-12-09T04:25:53.689Z,97310.72
2022-12-09T04:28:20.434Z,97309.16
2022-12-09T04:30:47.890Z,97308.56
2022-12-09T04:33:15.150Z,97306.97
2022-12-09T04:35:42.417Z,97300.59
2022-12-09T04:38:09.595Z,97302.19
2022-12-09T04:40:36.821Z,97303.22
2022-12-09T04:43:03.879Z,97297.97
2022-12-09T04:45:31.175Z,97296.72
2022-12-09T04:48:01.517Z,97304.47
2022-12-09T04:50:28.443Z,97302.19
2022-12-09T04:52:55.304Z,97302.81
2022-12-09T04:55:22.458Z,97295.78
2022-12-09T04:57:49.380Z,97295.97
2022-12-09T05:00:17.081Z,97295.22
2022-12-09T05:02:44.391Z,97286.59
2022-12-09T05:05:12.470Z,97291.25
2022-12-09T05:07:39.682Z,97278.56
2022-12-09T05:10:08.086Z,97277.75
2022-12-09T05:12:35.494Z,97284.62
2022-12-09T05:15:02.769Z,97275.72
2022-12-09T05:17:29.791Z,97275.00
2022-12-09T05:19:56.898Z,97272.84
2022-12-09T05:22:24.003Z,97273.37
2022-12-09T05:24:51.400Z,97272.13
2022-12-09T05:27:18.442Z,97262.94
2022-12-09T05:29:45.346Z,97272.37
2022-12-09T05:32:12.509Z,97273.13
2022-12-09T05:34:39.759Z,97275.94
2022-12-09T05:37:07.098Z,97277.38
2022-12-09T05:39:34.372Z,97276.47
2022-12-09T05:42:01.353Z,97273.34
2022-12-09T05:44:29.080Z,97280.25
2022-12-09T05:46:56.284Z,97269.69
2022-12-09T05:49:24.549Z,97271.69
2022-12-09T05:51:52.019Z,97274.84
2022-12-09T05:54:19.413Z,97279.03
2022-12-09T05:56:48.262Z,97273.97
2022-12-09T05:59:21.663Z,97270.78
2022-12-09T06:01:48.791Z,97267.56
2022-12-09T06:04:16.220Z,97278.16
2022-12-09T06:06:43.528Z,97268.00
2022-12-09T06:09:12.360Z,97267.88
2022-12-09T06:11:40.378Z,97257.16
2022-12-09T06:14:09.649Z,97259.44
2022-12-09T06:16:37.508Z,97256.19
2022-12-09T06:19:06.079Z,97256.06
2022-12-09T06:21:33.084Z,97247.41
2022-12-09T06:24:00.079Z,97253.44
2022-12-09T06:26:29.924Z,97250.47
2022-12-09T06:28:57.753Z,97255.75
2022-12-09T06:31:25.175Z,97259.75
2022-12-09T06:33:55.261Z,97260.53
2022-12-09T06:36:25.083Z,97260.09
2022-12-09T06:38:52.721Z,97257.59
2022-12-09T06:41:19.983Z,97260.47
2022-12-09T06:43:47.029Z,97266.09
2022-12-09T06:46:16.122Z,97265.34
2022-12-09T06:48:43.619Z,97263.06
2022-12-09T06:51:11.280Z,97262.91
2022-12-09T06:53:38.571Z,97256.53
2022-12-09T06:56:11.898Z,97261.06
2022-12-09T06:58:41.299Z,97261.66
2022-12-09T07:01:16.513Z,97249.53
2022-12-09T07:03:45.766Z,97234.41
2022-12-09T07:06:28.729Z,97231.03
2022-12-09T07:08:58.280Z,97237.22
2022-12-09T07:11:25.720Z,97239.81
2022-12-09T07:13:52.926Z,97242.72
2022-12-09T07:16:20.212Z,97255.94
2022-12-09T07:18:49.619Z,97246.50
2022-12-09T07:21:18.858Z,97245.38
2022-12-09T07:23:46.144Z,97241.41
2022-12-09T07:26:13.701Z,97238.31
2022-12-09T07:28:42.631Z,97243.97
2022-12-09T07:31:30.260Z,97238.09
2022-12-09T07:33:58.955Z,97227.22
2022-12-09T07:36:28.013Z,97235.06
2022-12-09T07:39:00.153Z,97231.44
2022-12-09T07:41:27.600Z,97230.88
2022-12-09T07:43:55.138Z,97218.13
2022-12-09T07:46:24.295Z,97211.50
2022-12-09T07:48:51.462Z,97206.19
2022-12-09T07:51:19.265Z,97202.91
2022-12-09T07:53:47.137Z,97203.91
2022-12-09T07:56:15.858Z,97200.81
2022-12-09T07:58:44.765Z,97202.84
2022-12-09T08:01:17.454Z,97200.06
2022-12-09T08:03:45.510Z,97205.72
2022-12-09T08:06:15.132Z,97203.06
2022-12-09T08:08:43.215Z,97197.84
2022-12-09T08:11:19.065Z,97200.78
2022-12-09T08:13:46.860Z,97210.50
2022-12-09T08:16:15.961Z,97209.31
2022-12-09T08:18:43.989Z,97197.03
2022-12-09T08:21:16.996Z,97198.75
2022-12-09T08:23:44.957Z,97197.81
2022-12-09T08:26:12.992Z,97192.62
2022-12-09T08:28:41.152Z,97183.47
2022-12-09T08:31:16.538Z,97183.56
2022-12-09T08:33:44.109Z,97182.25
2022-12-09T08:36:15.190Z,97193.25
2022-12-09T08:38:43.372Z,97196.72
2022-12-09T08:41:35.831Z,97189.94
2022-12-09T08:44:12.282Z,97196.56
2022-12-09T08:46:41.170Z,97175.50
2022-12-09T08:49:09.215Z,97195.16
2022-12-09T08:51:37.352Z,97197.97
2022-12-09T08:54:05.042Z,97184.00
2022-12-09T08:56:32.801Z,97169.97
2022-12-09T08:59:00.772Z,97170.47
2022-12-09T09:01:35.583Z,97177.69
2022-12-09T09:04:05.582Z,97168.28
2022-12-09T09:06:34.114Z,97151.97
2022-12-09T09:09:01.430Z,97156.34
2022-12-09T09:11:28.964Z,97153.66
2022-12-09T09:13:57.002Z,97150.50
2022-12-09T09:16:25.641Z,97144.63
2022-12-09T09:18:53.492Z,97143.91
2022-12-09T09:21:23.407Z,97140.84
2022-12-09T09:23:51.091Z,97142.78
2022-12-09T09:26:20.743Z,97132.19
2022-12-09T09:28:48.102Z,97136.50
2022-12-09T09:31:18.380Z,97126.09
2022-12-09T09:33:46.091Z,97118.47
2022-12-09T09:36:16.955Z,97109.09
2022-12-09T09:38:53.957Z,97104.41
2022-12-09T09:41:42.057Z,97090.31
2022-12-09T09:44:39.395Z,97089.78
2022-12-09T09:47:26.347Z,97074.34
2022-12-09T09:50:04.693Z,97074.56
2022-12-09T09:52:31.869Z,97066.94
2022-12-09T09:54:59.380Z,97057.44
2022-12-09T09:58:04.686Z,97060.28
2022-12-09T10:00:48.772Z,97052.25
2022-12-09T10:03:37.152Z,97050.72
2022-12-09T10:06:25.787Z,97054.31
2022-12-09T10:09:09.591Z,97039.44
2022-12-09T10:11:43.199Z,97047.44
2022-12-09T10:14:35.181Z,97036.31
2022-12-09T10:17:33.297Z,97018.22
2022-12-09T10:20:11.685Z,97000.25
2022-12-09T10:23:12.932Z,97002.53
2022-12-09T10:25:48.182Z,96998.41
2022-12-09T10:28:25.397Z,96982.09
2022-12-09T10:30:54.403Z,96980.50
2022-12-09T10:33:34.465Z,96971.50
2022-12-09T10:36:02.198Z,96972.91
2022-12-09T10:38:30.973Z,96965.66
2022-12-09T10:41:06.533Z,96965.44
2022-12-09T10:43:39.261Z,96969.00
2022-12-09T10:46:18.392Z,96967.37
2022-12-09T10:48:49.201Z,96958.31
2022-12-09T10:51:25.292Z,96954.59
2022-12-09T10:54:04.303Z,96952.37
2022-12-09T10:56:38.014Z,96954.03
2022-12-09T10:59:23.241Z,96960.81
2022-12-09T11:01:52.596Z,96953.44
2022-12-09T11:04:27.354Z,96940.62
2022-12-09T11:06:59.656Z,96931.78
2022-12-09T11:09:32.424Z,96916.78
2022-12-09T11:12:00.143Z,96927.91
2022-12-09T11:14:39.715Z,96917.28
2022-12-09T11:17:21.833Z,96904.66
2022-12-09T11:20:21.330Z,96906.63
2022-12-09T11:23:23.044Z,96911.69
2022-12-09T11:26:04.626Z,96905.38
2022-12-09T11:28:35.106Z,96897.78
2022-12-09T11:31:29.605Z,96900.09
2022-12-09T11:34:00.321Z,96904.31
2022-12-09T11:36:37.225Z,96885.13
2022-12-09T11:39:24.522Z,96887.47
2022-12-09T11:42:17.480Z,96887.00
2022-12-09T11:45:50.124Z,96878.31
2022-12-09T11:48:34.988Z,96864.34
2022-12-09T11:51:20.509Z,96861.66
2022-12-09T11:53:47.495Z,96853.66
2022-12-09T11:56:18.075Z,96864.09
2022-12-09T11:59:00.610Z,96860.81
2022-12-09T12:01:48.848Z,96874.00
2022-12-09T12:04:18.678Z,96873.69
2022-12-09T12:07:05.479Z,96876.13
2022-12-09T12:09:38.310Z,96876.94
2022-12-09T12:12:38.762Z,96877.31
2022-12-09T12:15:32.223Z,96869.84
2022-12-09T12:18:01.045Z,96865.59
2022-12-09T12:20:49.478Z,96867.66
2022-12-09T12:23:28.090Z,96858.09
2022-12-09T12:26:04.256Z,96858.09
2022-12-09T12:28:56.622Z,96856.44
2022-12-09T12:31:46.608Z,96856.03
2022-12-09T12:34:39.642Z,96843.50
2022-12-09T12:37:43.595Z,96846.75
2022-12-09T12:40:25.029Z,96839.84
2022-12-09T12:43:24.655Z,96835.59
2022-12-09T12:46:18.944Z,96852.91
2022-12-09T12:49:01.834Z,96849.69
2022-12-09T12:51:34.581Z,96856.75
2022-12-09T12:54:35.155Z,96848.16
2022-12-09T12:57:12.040Z,96847.03
2022-12-09T13:00:11.330Z,96834.47
2022-12-09T13:03:12.245Z,96830.63
2022-12-09T13:05:42.886Z,96814.06
2022-12-09T13:08:31.180Z,96799.44
2022-12-09T13:11:01.396Z,96800.25
2022-12-09T13:13:36.855Z,96804.75
2022-12-09T13:16:20.537Z,96801.06
2022-12-09T13:18:48.695Z,96805.06
2022-12-09T13:21:16.004Z,96808.75
2022-12-09T13:23:55.683Z,96809.38
2022-12-09T13:27:05.323Z,96804.66
2022-12-09T13:29:55.414Z,96800.97
2022-12-09T13:32:42.796Z,96798.56
2022-12-09T13:35:54.892Z,96793.38
2022-12-09T13:38:42.834Z,96790.44
2022-12-09T13:41:27.828Z,96780.19
2022-12-09T13:44:05.291Z,96776.72
2022-12-09T13:46:33.049Z,96780.38
2022-12-09T13:49:16.889Z,96769.25
2022-12-09T13:51:54.163Z,96761.00
2022-12-09T13:54:23.340Z,96755.56
2022-12-09T13:57:02.500Z,96761.50
2022-12-09T13:59:59.716Z,96762.56
2022-12-09T14:02:53.017Z,96760.88
2022-12-09T14:05:23.418Z,96749.88
2022-12-09T14:08:23.568Z,96750.16
2022-12-09T14:10:50.976Z,96744.19
2022-12-09T14:13:28.099Z,96740.63
2022-12-09T14:16:15.259Z,96729.22
2022-12-09T14:18:43.032Z,96727.31
2022-12-09T14:21:30.637Z,96724.47
2022-12-09T14:24:09.767Z,96733.03
2022-12-09T14:26:37.700Z,96739.19
2022-12-09T14:29:05.231Z,96739.22
2022-12-09T14:31:43.525Z,96730.06
2022-12-09T14:34:18.836Z,96726.06
2022-12-09T14:36:54.441Z,96725.81
2022-12-09T14:39:30.669Z,96723.31
2022-12-09T14:42:02.216Z,96721.22
2022-12-09T14:44:48.196Z,96720.19
2022-12-09T14:47:23.126Z,96710.84
2022-12-09T14:49:51.130Z,96715.91
2022-12-09T14:52:25.302Z,96718.16
2022-12-09T14:54:53.112Z,96721.06
2022-12-09T14:57:27.835Z,96715.22
2022-12-09T14:59:56.662Z,96709.91
2022-12-09T15:02:26.555Z,96707.44
2022-12-09T15:04:54.716Z,96695.44
2022-12-09T15:07:28.700Z,96691.78
2022-12-09T15:09:57.975Z,96674.25
2022-12-09T15:12:27.572Z,96680.38
2022-12-09T15:15:06.042Z,96674.69
2022-12-09T15:17:40.702Z,96676.59
2022-12-09T15:20:08.322Z,96667.47
2022-12-09T15:22:35.243Z,96664.31
2022-12-09T15:25:03.213Z,96657.13
2022-12-09T15:27:30.750Z,96657.34
2022-12-09T15:29:57.793Z,96659.47
2022-12-09T15:32:28.045Z,96660.00
2022-12-09T15:34:55.457Z,96647.28
2022-12-09T15:37:27.125Z,96655.78
2022-12-09T15:40:02.545Z,96646.50
2022-12-09T15:42:32.462Z,96639.87
2022-12-09T15:45:13.441Z,96635.34
2022-12-09T15:47:47.896Z,96637.09
2022-12-09T15:50:27.711Z,96636.72
2022-12-09T15:53:02.547Z,96620.34
2022-12-09T15:55:40.792Z,96621.16
2022-12-09T15:58:11.846Z,96606.69
2022-12-09T16:00:47.170Z,96606.88
2022-12-09T16:03:17.582Z,96597.38
2022-12-09T16:05:53.552Z,96593.87
2022-12-09T16:08:21.461Z,96590.38
2022-12-09T16:10:50.667Z,96581.41
2022-12-09T16:13:19.193Z,96569.50
2022-12-09T16:15:54.288Z,96570.84
2022-12-09T16:18:28.220Z,96564.72
2022-12-09T16:21:03.133Z,96558.63
2022-12-09T16:23:30.068Z,96565.41
2022-12-09T16:26:06.447Z,96560.19
2022-12-09T16:28:34.135Z,96554.03
2022-12-09T16:31:03.970Z,96550.66
2022-12-09T16:33:35.214Z,96551.94
2022-12-09T16:36:05.194Z,96547.78
2022-12-09T16:38:34.129Z,96546.28
2022-12-09T16:41:04.308Z,96541.09
2022-12-09T16:43:31.338Z,96545.72
2022-12-09T16:46:15.020Z,96543.72
2022-12-09T16:48:42.733Z,96546.97
2022-12-09T16:51:14.489Z,96542.06
2022-12-09T16:53:47.269Z,96533.09
2022-12-09T16:56:28.742Z,96525.81
2022-12-09T16:58:56.265Z,96523.25
2022-12-09T17:01:26.697Z,96522.25
2022-12-09T17:04:04.362Z,96515.69
2022-12-09T17:06:31.603Z,96518.72
2022-12-09T17:08:58.628Z,96512.13
2022-12-09T17:11:25.570Z,96515.84
2022-12-09T17:13:52.654Z,96506.78
2022-12-09T17:16:22.365Z,96511.25
2022-12-09T17:18:49.951Z,96514.47
2022-12-09T17:21:17.584Z,96514.22
2022-12-09T17:23:44.602Z,96518.94
2022-12-09T17:26:14.399Z,96519.75
2022-12-09T17:28:41.883Z,96517.16
2022-12-09T17:31:10.481Z,96513.59
2022-12-09T17:33:37.708Z,96516.50
2022-12-09T17:36:05.342Z,96517.34
2022-12-09T17:38:32.253Z,96513.13
2022-12-09T17:41:04.765Z,96506.94
2022-12-09T17:43:31.916Z,96508.94
2022-12-09T17:46:00.590Z,96505.31
2022-12-09T17:48:29.125Z,96506.75
2022-12-09T17:50:56.459Z,96501.97
2022-12-09T17:53:23.621Z,96506.53
2022-12-09T17:55:50.661Z,96497.84
2022-12-09T17:58:17.820Z,96487.50
2022-12-09T18:00:44.755Z,96481.81
2022-12-09T18:03:17.789Z,96486.50
2022-12-09T18:05:49.139Z,96474.63
2022-12-09T18:08:15.867Z,96487.13
2022-12-09T18:10:44.324Z,96474.34
2022-12-09T18:13:11.165Z,96472.31
2022-12-09T18:15:37.831Z,96470.00
2022-12-09T18:18:04.913Z,96481.00
2022-12-09T18:20:31.777Z,96477.38
2022-12-09T18:22:58.478Z,96472.78
2022-12-09T18:25:25.335Z,96469.00
2022-12-09T18:27:51.987Z,96460.06
2022-12-09T18:30:18.989Z,96439.78
2022-12-09T18:32:46.011Z,96436.69
2022-12-09T18:35:12.855Z,96429.06
2022-12-09T18:37:39.569Z,96435.47
2022-12-09T18:40:07.386Z,96435.22
2022-12-09T18:42:34.504Z,96425.25
2022-12-09T18:45:01.348Z,96427.53
2022-12-09T18:47:28.326Z,96423.38
2022-12-09T18:49:55.225Z,96416.28
2022-12-09T18:52:22.104Z,96415.44
2022-12-09T18:54:49.001Z,96417.41
2022-12-09T18:57:15.851Z,96412.72
2022-12-09T18:59:42.525Z,96423.34
2022-12-09T19:02:11.811Z,96416.84
2022-12-09T19:04:38.790Z,96411.03
2022-12-09T19:07:05.753Z,96422.31
2022-12-09T19:09:34.872Z,96412.66
2022-12-09T19:12:22.950Z,96412.25
2022-12-09T19:14:50.402Z,96405.63
2022-12-09T19:17:18.952Z,96405.34
2022-12-09T19:19:47.436Z,96395.75
2022-12-09T19:22:14.750Z,96401.31
2022-12-09T19:24:43.358Z,96403.19
2022-12-09T19:27:10.485Z,96390.13
2022-12-09T19:29:37.499Z,96380.81
2022-12-09T19:32:13.923Z,96364.81
2022-12-09T19:34:50.693Z,96370.22
2022-12-09T19:37:17.357Z,96393.69
2022-12-09T19:39:46.570Z,96387.59
2022-12-09T19:42:13.573Z,96377.75
2022-12-09T19:47:27.371Z,96384.22
2022-12-09T19:49:54.273Z,96389.88
2022-12-09T19:52:21.192Z,96384.78
2022-12-09T19:54:48.031Z,96386.91
2022-12-09T19:57:15.490Z,96379.87
2022-12-09T19:59:42.397Z,96397.00
2022-12-09T20:02:12.182Z,96392.25
2022-12-09T20:04:48.788Z,96388.47
2022-12-09T20:07:16.911Z,96390.84
2022-12-09T20:09:43.895Z,96400.97
2022-12-09T20:12:10.781Z,96401.31
2022-12-09T20:14:39.020Z,96408.44
2022-12-09T20:17:05.985Z,96400.66
2022-12-09T20:19:32.927Z,96403.84
2022-12-09T20:21:59.795Z,96397.69
2022-12-09T20:24:26.969Z,96403.66
2022-12-09T20:26:55.226Z,96395.31
2022-12-09T20:29:22.104Z,96384.41
2022-12-09T20:31:48.989Z,96393.47
2022-12-09T20:34:16.587Z,96395.75
2022-12-09T20:36:44.828Z,96396.16
2022-12-09T20:39:18.197Z,96402.38
2022-12-09T20:41:45.556Z,96400.94
2022-12-09T20:44:13.256Z,96385.72
2022-12-09T20:46:41.557Z,96391.50
2022-12-09T20:49:09.651Z,96375.00
2022-12-09T20:51:38.786Z,96367.06
2022-12-09T20:54:07.166Z,96366.00
2022-12-09T20:56:35.617Z,96362.75
2022-12-09T20:59:03.400Z,96355.78
2022-12-09T21:01:32.910Z,96356.75
2022-12-09T21:04:01.452Z,96354.66
2022-12-09T21:06:30.479Z,96356.09
2022-12-09T21:09:00.906Z,96356.53
2022-12-09T21:11:27.838Z,96351.19
2022-12-09T21:13:58.540Z,96350.66
2022-12-09T21:16:30.551Z,96355.94
2022-12-09T21:18:59.453Z,96360.84
2022-12-09T21:21:28.961Z,96357.34
2022-12-09T21:23:56.020Z,96359.94
2022-12-09T21:26:24.603Z,96365.97
2022-12-09T21:28:52.250Z,96363.50
2022-12-09T21:31:24.846Z,96370.69
2022-12-09T21:33:56.031Z,96374.66
2022-12-09T21:36:27.858Z,96373.59
2022-12-09T21:38:54.991Z,96376.06
2022-12-09T21:41:24.779Z,96382.28
2022-12-09T21:43:52.581Z,96374.91
2022-12-09T21:46:22.471Z,96390.19
2022-12-09T21:48:52.310Z,96384.31
2022-12-09T21:51:20.560Z,96380.47
2022-12-09T21:53:48.651Z,96387.47
2022-12-09T21:56:18.920Z,96383.09
2022-12-09T21:58:47.164Z,96392.09
2022-12-09T22:01:19.553Z,96398.22
2022-12-09T22:03:47.741Z,96407.03
2022-12-09T22:06:15.152Z,96418.28
2022-12-09T22:08:42.808Z,96414.38
2022-12-09T22:11:11.730Z,96408.78
2022-12-09T22:13:39.925Z,96396.37
2022-12-09T22:16:12.487Z,96387.19
2022-12-09T22:18:39.769Z,96384.72
2022-12-09T22:21:24.061Z,96388.94
2022-12-09T22:23:58.913Z,96392.31
2022-12-09T22:26:26.272Z,96402.28
2022-12-09T22:28:53.874Z,96396.25
2022-12-09T22:31:26.161Z,96390.72
2022-12-09T22:33:54.991Z,96383.16
2022-12-09T22:36:22.535Z,96392.44
2022-12-09T22:38:50.188Z,96393.75
2022-12-09T22:41:22.305Z,96401.09
2022-12-09T22:43:50.122Z,96406.97
2022-12-09T22:46:20.962Z,96401.69
2022-12-09T22:48:48.072Z,96397.84
2022-12-09T22:51:19.157Z,96406.97
2022-12-09T22:53:47.949Z,96408.66
2022-12-09T22:56:14.787Z,96397.84
2022-12-09T22:58:41.503Z,96412.75
2022-12-09T23:01:13.268Z,96407.50
2022-12-09T23:03:40.315Z,96416.59
2022-12-09T23:06:08.189Z,96421.38
2022-12-09T23:08:36.254Z,96412.16
2022-12-09T23:11:05.137Z,96407.50
2022-12-09T23:13:35.007Z,96417.13
2022-12-09T23:16:06.754Z,96417.00
2022-12-09T23:18:34.515Z,96420.22
2022-12-09T23:21:09.521Z,96429.22
2022-12-09T23:23:36.513Z,96434.72
2022-12-09T23:26:11.148Z,96430.22
2022-12-09T23:28:39.455Z,96439.25
2022-12-09T23:31:10.189Z,96431.28
2022-12-09T23:33:38.891Z,96439.19
2022-12-09T23:36:14.410Z,96436.41
2022-12-09T23:38:41.891Z,96443.69
2022-12-09T23:41:10.294Z,96439.13
2022-12-09T23:43:38.274Z,96430.44
2022-12-09T23:46:14.986Z,96446.38
2022-12-09T23:48:44.197Z,96445.97
2022-12-09T23:51:16.105Z,96459.13
2022-12-09T23:53:44.336Z,96456.34
2022-12-09T23:56:13.520Z,96462.00
2022-12-09T23:58:40.976Z,96458.88
